createdAt,value
2023-05-21T00:01:56.772Z,64.30
2023-05-21T00:04:25.576Z,64.30
2023-05-21T00:06:52.892Z,64.80
2023-05-21T00:09:19.782Z,64.30
2023-05-21T00:11:46.636Z,64.40
2023-05-21T00:14:13.893Z,63.60
2023-05-21T00:16:41.149Z,64.20
2023-05-21T00:19:08.300Z,63.80
2023-05-21T00:21:35.237Z,63.70
2023-05-21T00:24:02.133Z,63.20
2023-05-21T00:26:29.005Z,63.50
2023-05-21T00:28:55.967Z,65.30
2023-05-21T00:31:22.975Z,64.60
2023-05-21T00:33:49.820Z,65.00
2023-05-21T00:36:17.328Z,64.50
2023-05-21T00:38:44.303Z,64.50
2023-05-21T00:41:11.508Z,64.60
2023-05-21T00:43:42.045Z,65.00
2023-05-21T00:46:13.631Z,65.60
2023-05-21T00:48:40.558Z,65.50
2023-05-21T00:51:07.671Z,65.40
2023-05-21T00:53:35.716Z,65.70
2023-05-21T00:56:03.506Z,65.20
2023-05-21T00:58:31.210Z,65.10
2023-05-21T01:00:58.877Z,64.80
2023-05-21T01:03:26.421Z,65.10
2023-05-21T01:05:53.503Z,65.60
2023-05-21T01:08:21.885Z,65.10
2023-05-21T01:10:50.303Z,65.70
2023-05-21T01:13:18.104Z,65.80
2023-05-21T01:15:46.084Z,66.90
2023-05-21T01:18:14.459Z,67.10
2023-05-21T01:20:42.984Z,67.30
2023-05-21T01:23:09.824Z,67.80
2023-05-21T01:25:36.950Z,68.00
2023-05-21T01:28:04.206Z,69.20
2023-05-21T01:30:31.306Z,69.40
2023-05-21T01:33:05.041Z,70.20
2023-05-21T01:35:41.849Z,69.00
2023-05-21T01:38:27.148Z,70.20
2023-05-21T01:41:03.730Z,69.20
2023-05-21T01:43:36.560Z,69.90
2023-05-21T01:46:05.650Z,70.70
2023-05-21T01:48:34.307Z,70.80
2023-05-21T01:51:04.499Z,71.00
2023-05-21T01:53:31.805Z,72.10
2023-05-21T01:55:59.430Z,71.20
2023-05-21T01:58:26.400Z,71.90
2023-05-21T02:00:53.267Z,71.40
2023-05-21T02:03:21.726Z,71.00
2023-05-21T02:05:48.782Z,71.10
2023-05-21T02:08:15.703Z,71.50
2023-05-21T02:10:42.572Z,70.80
2023-05-21T02:13:09.465Z,70.20
2023-05-21T02:15:36.548Z,70.80
2023-05-21T02:18:04.496Z,70.70
2023-05-21T02:20:31.879Z,71.00
2023-05-21T02:22:58.756Z,71.40
2023-05-21T02:25:26.136Z,71.40
2023-05-21T02:27:54.155Z,71.00
2023-05-21T02:30:21.534Z,72.30
2023-05-21T02:32:49.277Z,73.00
2023-05-21T02:35:16.342Z,72.50
2023-05-21T02:37:44.343Z,72.90
2023-05-21T02:40:12.312Z,73.30
2023-05-21T02:42:41.426Z,73.30
2023-05-21T02:45:10.119Z,73.90
2023-05-21T02:47:38.428Z,74.30
2023-05-21T02:50:07.633Z,74.50
2023-05-21T02:52:34.579Z,74.10
2023-05-21T02:55:01.567Z,74.30
2023-05-21T02:57:28.416Z,74.70
2023-05-21T02:59:55.310Z,74.90
2023-05-21T03:02:22.380Z,74.90
2023-05-21T03:04:51.664Z,74.80
2023-05-21T03:07:19.944Z,74.60
2023-05-21T03:09:47.087Z,75.20
2023-05-21T03:12:14.052Z,76.40
2023-05-21T03:14:44.226Z,75.50
2023-05-21T03:17:14.073Z,76.10
2023-05-21T03:19:42.036Z,75.80
2023-05-21T03:22:09.411Z,76.00
2023-05-21T03:27:06.463Z,76.50
2023-05-21T03:29:34.124Z,76.00
2023-05-21T03:32:02.064Z,76.00
2023-05-21T03:34:29.026Z,76.30
2023-05-21T03:36:55.924Z,76.00
2023-05-21T03:39:23.114Z,75.70
2023-05-21T03:41:50.088Z,75.40
2023-05-21T03:44:17.110Z,76.00
2023-05-21T03:46:45.553Z,76.60
2023-05-21T03:49:13.955Z,76.60
2023-05-21T03:51:40.897Z,76.60
2023-05-21T03:54:07.847Z,76.80
2023-05-21T03:56:34.779Z,76.60
2023-05-21T03:59:01.815Z,76.30
2023-05-21T04:01:28.798Z,75.80
2023-05-21T04:03:55.937Z,76.50
2023-05-21T04:06:23.083Z,75.80
2023-05-21T04:11:18.147Z,75.20
2023-05-21T04:13:44.999Z,74.60
2023-05-21T04:16:14.849Z,74.90
2023-05-21T04:18:44.143Z,74.40
2023-05-21T04:21:12.669Z,74.50
2023-05-21T04:23:39.810Z,74.50
2023-05-21T04:26:07.725Z,74.20
2023-05-21T04:28:35.490Z,73.60
2023-05-21T04:31:02.746Z,74.50
2023-05-21T04:33:30.470Z,74.00
2023-05-21T04:35:57.935Z,74.60
2023-05-21T04:38:26.153Z,73.90
2023-05-21T04:40:53.392Z,73.70
2023-05-21T04:43:26.116Z,73.40
2023-05-21T04:45:55.123Z,73.20
2023-05-21T04:48:27.234Z,71.30
2023-05-21T04:50:54.351Z,72.60
2023-05-21T04:53:22.001Z,71.50
2023-05-21T04:55:49.304Z,71.80
2023-05-21T04:58:18.412Z,72.10
2023-05-21T05:00:51.891Z,72.70
2023-05-21T05:03:19.127Z,73.30
2023-05-21T05:05:46.669Z,73.50
2023-05-21T05:08:15.789Z,72.80
2023-05-21T05:10:43.163Z,72.40
2023-05-21T05:13:10.113Z,72.00
2023-05-21T05:15:37.893Z,71.80
2023-05-21T05:18:05.105Z,71.30
2023-05-21T05:20:31.953Z,72.00
2023-05-21T05:22:58.863Z,70.40
2023-05-21T05:25:26.018Z,69.20
2023-05-21T05:27:52.876Z,68.90
2023-05-21T05:30:20.899Z,68.40
2023-05-21T05:32:47.933Z,69.60
2023-05-21T05:35:14.858Z,69.70
2023-05-21T05:37:41.821Z,69.90
2023-05-21T05:40:09.131Z,69.40
2023-05-21T05:42:35.949Z,68.10
2023-05-21T05:45:02.857Z,68.50
2023-05-21T05:47:29.829Z,68.80
2023-05-21T05:49:56.836Z,69.90
2023-05-21T05:52:23.763Z,70.00
2023-05-21T05:54:50.753Z,68.70
2023-05-21T05:57:17.632Z,68.40
2023-05-21T05:59:44.589Z,68.80
2023-05-21T06:02:11.520Z,69.10
2023-05-21T06:04:38.504Z,68.60
2023-05-21T06:07:05.511Z,68.70
2023-05-21T06:09:32.374Z,68.70
2023-05-21T06:11:59.260Z,69.00
2023-05-21T06:14:26.731Z,68.50
2023-05-21T06:16:53.612Z,68.00
2023-05-21T06:19:20.858Z,67.80
2023-05-21T06:21:48.599Z,68.30
2023-05-21T06:24:15.994Z,67.80
2023-05-21T06:26:42.904Z,69.30
2023-05-21T06:29:09.838Z,69.40
2023-05-21T06:31:36.779Z,68.20
2023-05-21T06:34:04.156Z,67.80
2023-05-21T06:36:32.561Z,69.10
2023-05-21T06:38:59.606Z,69.50
2023-05-21T06:41:26.715Z,66.70
2023-05-21T06:43:53.595Z,65.20
2023-05-21T06:46:21.083Z,63.50
2023-05-21T06:48:48.032Z,62.10
2023-05-21T06:51:15.338Z,61.60
2023-05-21T06:53:42.191Z,62.10
2023-05-21T06:56:09.048Z,62.40
2023-05-21T06:58:36.033Z,63.30
2023-05-21T07:01:03.113Z,63.50
2023-05-21T07:03:30.147Z,63.50
2023-05-21T07:05:58.079Z,63.40
2023-05-21T07:08:25.050Z,62.70
2023-05-21T07:10:51.906Z,62.40
2023-05-21T07:13:18.905Z,62.50
2023-05-21T07:15:45.777Z,61.20
2023-05-21T07:18:13.358Z,59.50
2023-05-21T07:20:40.994Z,61.30
2023-05-21T07:23:07.833Z,61.40
2023-05-21T07:25:34.813Z,59.10
2023-05-21T07:28:01.784Z,60.50
2023-05-21T07:30:28.706Z,60.80
2023-05-21T07:32:55.735Z,59.90
2023-05-21T07:35:22.883Z,55.50
2023-05-21T07:37:49.884Z,57.40
2023-05-21T07:40:16.941Z,54.10
2023-05-21T07:42:43.841Z,53.30
2023-05-21T07:45:10.868Z,50.90
2023-05-21T07:47:37.905Z,49.40
2023-05-21T07:50:05.682Z,47.20
2023-05-21T07:52:32.552Z,48.30
2023-05-21T07:54:59.458Z,46.80
2023-05-21T07:57:26.368Z,43.10
2023-05-21T07:59:53.348Z,44.60
2023-05-21T08:02:20.456Z,43.30
2023-05-21T08:04:47.477Z,40.90
2023-05-21T08:07:17.017Z,38.70
2023-05-21T08:09:43.896Z,36.20
2023-05-21T08:12:10.835Z,35.00
2023-05-21T08:14:37.661Z,32.30
2023-05-21T08:17:04.723Z,36.10
2023-05-21T08:19:31.831Z,29.60
2023-05-21T08:21:58.732Z,29.80
2023-05-21T08:24:26.524Z,30.00
2023-05-21T08:26:53.821Z,31.10
2023-05-21T08:29:20.853Z,28.30
2023-05-21T08:31:47.752Z,29.00
2023-05-21T08:34:14.727Z,29.00
2023-05-21T08:36:43.384Z,30.70
2023-05-21T08:39:10.282Z,29.20
2023-05-21T08:41:39.283Z,29.70
2023-05-21T08:44:12.220Z,28.50
2023-05-21T08:46:43.347Z,27.30
2023-05-21T08:49:14.067Z,27.30
2023-05-21T08:51:41.849Z,27.20
2023-05-21T08:54:09.498Z,27.00
2023-05-21T08:56:36.738Z,26.00
2023-05-21T08:59:03.674Z,28.10
2023-05-21T09:01:33.560Z,28.30
2023-05-21T09:04:12.340Z,26.80
2023-05-21T09:06:47.350Z,26.40
2023-05-21T09:09:27.986Z,26.20
2023-05-21T09:11:55.002Z,24.00
2023-05-21T09:14:22.867Z,24.30
2023-05-21T09:16:49.792Z,26.60
2023-05-21T09:19:16.726Z,27.40
2023-05-21T09:21:44.160Z,26.50
2023-05-21T09:24:11.248Z,27.20
2023-05-21T09:26:38.305Z,27.90
2023-05-21T09:29:05.171Z,27.40
2023-05-21T09:31:33.046Z,26.80
2023-05-21T09:34:00.607Z,24.00
2023-05-21T09:36:29.462Z,25.00
2023-05-21T09:38:58.469Z,22.60
2023-05-21T09:41:36.058Z,24.10
2023-05-21T09:44:03.501Z,22.20
2023-05-21T09:46:41.543Z,21.50
2023-05-21T09:49:24.106Z,22.70
2023-05-21T09:51:51.000Z,23.50
2023-05-21T09:54:17.900Z,22.00
2023-05-21T09:56:44.787Z,19.60
2023-05-21T09:59:11.722Z,21.80
2023-05-21T10:01:38.888Z,22.10
2023-05-21T10:04:09.490Z,19.50
2023-05-21T10:06:42.222Z,19.70
2023-05-21T10:09:11.609Z,20.70
2023-05-21T10:11:42.997Z,18.90
2023-05-21T10:14:17.140Z,20.10
2023-05-21T10:16:45.106Z,16.60
2023-05-21T10:19:14.422Z,17.50
2023-05-21T10:21:42.345Z,18.70
2023-05-21T10:24:10.377Z,17.70
2023-05-21T10:26:39.665Z,16.20
2023-05-21T10:29:08.669Z,17.50
2023-05-21T10:31:36.061Z,18.40
2023-05-21T10:34:06.187Z,18.10
2023-05-21T10:36:34.322Z,16.90
2023-05-21T10:39:03.457Z,17.80
2023-05-21T10:41:38.691Z,17.40
2023-05-21T10:44:22.083Z,17.50
2023-05-21T10:47:07.571Z,15.40
2023-05-21T10:49:34.875Z,15.60
2023-05-21T10:52:18.423Z,16.90
2023-05-21T10:54:54.454Z,16.70
2023-05-21T10:57:55.490Z,14.90
2023-05-21T11:00:24.619Z,15.30
2023-05-21T11:02:53.149Z,17.20
2023-05-21T11:05:50.909Z,16.80
2023-05-21T11:08:27.794Z,16.50
2023-05-21T11:10:58.131Z,14.30
2023-05-21T11:13:27.077Z,14.80
2023-05-21T11:16:02.465Z,16.50
2023-05-21T11:18:35.591Z,16.70
2023-05-21T11:21:12.653Z,16.70
2023-05-21T11:23:56.690Z,16.90
2023-05-21T11:26:26.305Z,15.80
2023-05-21T11:29:05.359Z,16.80
2023-05-21T11:31:40.343Z,16.30
2023-05-21T11:34:14.772Z,15.40
2023-05-21T11:36:44.057Z,15.50
2023-05-21T11:39:15.830Z,17.60
2023-05-21T11:42:01.029Z,16.00
2023-05-21T11:44:41.001Z,15.50
2023-05-21T11:47:16.015Z,14.60
2023-05-21T11:49:43.113Z,16.50
2023-05-21T11:52:11.919Z,16.60
2023-05-21T11:54:55.732Z,16.40
2023-05-21T11:57:30.572Z,17.00
2023-05-21T11:59:59.719Z,16.60
2023-05-21T12:02:30.856Z,17.00
2023-05-21T12:05:04.007Z,16.00
2023-05-21T12:07:31.389Z,16.20
2023-05-21T12:09:58.988Z,16.30
2023-05-21T12:12:35.308Z,16.40
2023-05-21T12:15:10.375Z,15.80
2023-05-21T12:17:37.507Z,17.00
2023-05-21T12:20:07.549Z,15.90
2023-05-21T12:22:34.521Z,15.00
2023-05-21T12:25:01.688Z,15.90
2023-05-21T12:27:31.223Z,15.60
2023-05-21T12:29:58.916Z,14.30
2023-05-21T12:32:28.246Z,14.90
2023-05-21T12:34:56.541Z,14.40
2023-05-21T12:37:35.784Z,14.00
2023-05-21T12:40:11.153Z,16.30
2023-05-21T12:42:40.225Z,15.80
2023-05-21T12:45:08.544Z,16.20
2023-05-21T12:47:36.018Z,17.20
2023-05-21T12:50:04.896Z,16.20
2023-05-21T12:52:31.753Z,15.30
2023-05-21T12:54:59.764Z,16.30
2023-05-21T12:57:38.886Z,15.50
2023-05-21T13:00:07.474Z,17.00
2023-05-21T13:02:42.302Z,15.50
2023-05-21T13:05:19.481Z,15.90
2023-05-21T13:07:47.456Z,16.10
2023-05-21T13:10:18.409Z,16.50
2023-05-21T13:12:45.791Z,16.80
2023-05-21T13:15:13.283Z,15.50
2023-05-21T13:17:40.213Z,15.40
2023-05-21T13:20:13.319Z,17.80
2023-05-21T13:22:46.961Z,16.50
2023-05-21T13:25:16.965Z,16.90
2023-05-21T13:27:44.571Z,16.00
2023-05-21T13:30:11.860Z,16.90
2023-05-21T13:32:40.438Z,18.30
2023-05-21T13:35:07.928Z,18.40
2023-05-21T13:37:38.153Z,16.40
2023-05-21T13:40:07.011Z,16.50
2023-05-21T13:42:34.931Z,17.70
2023-05-21T13:45:02.140Z,15.40
2023-05-21T13:47:29.086Z,14.40
2023-05-21T13:49:55.986Z,16.00
2023-05-21T13:52:22.926Z,16.40
2023-05-21T13:54:49.955Z,16.60
2023-05-21T13:57:16.811Z,18.20
2023-05-21T13:59:43.786Z,16.30
2023-05-21T14:02:10.813Z,15.70
2023-05-21T14:04:39.428Z,15.40
2023-05-21T14:07:07.081Z,15.90
2023-05-21T14:09:34.506Z,12.80
2023-05-21T14:12:01.654Z,13.10
2023-05-21T14:14:28.583Z,13.40
2023-05-21T14:16:55.933Z,13.80
2023-05-21T14:19:23.071Z,15.40
2023-05-21T14:21:52.866Z,14.70
2023-05-21T14:24:20.163Z,16.00
2023-05-21T14:26:47.069Z,16.20
2023-05-21T14:29:14.669Z,16.60
2023-05-21T14:31:43.047Z,16.30
2023-05-21T14:34:10.249Z,16.90
2023-05-21T14:36:37.155Z,17.00
2023-05-21T14:39:04.212Z,16.50
2023-05-21T14:41:31.374Z,16.70
2023-05-21T14:43:58.274Z,15.70
2023-05-21T14:46:25.321Z,16.90
2023-05-21T14:48:52.904Z,16.20
2023-05-21T14:51:20.353Z,16.80
2023-05-21T14:53:47.231Z,16.80
2023-05-21T14:56:14.106Z,16.80
2023-05-21T14:58:41.112Z,16.80
2023-05-21T15:01:08.579Z,16.90
2023-05-21T15:03:35.695Z,16.90
2023-05-21T15:06:02.620Z,18.50
2023-05-21T15:08:29.524Z,17.70
2023-05-21T15:10:57.227Z,17.80
2023-05-21T15:13:24.189Z,17.90
2023-05-21T15:15:51.278Z,17.20
2023-05-21T15:18:18.229Z,17.50
2023-05-21T15:20:45.132Z,17.60
2023-05-21T15:23:17.286Z,16.10
2023-05-21T15:25:45.182Z,16.80
2023-05-21T15:28:13.167Z,16.90
2023-05-21T15:30:40.578Z,16.60
2023-05-21T15:33:07.650Z,18.00
2023-05-21T15:35:36.463Z,17.60
2023-05-21T15:38:03.805Z,18.50
2023-05-21T15:40:31.663Z,17.40
2023-05-21T15:42:58.548Z,17.70
2023-05-21T15:45:25.820Z,19.00
2023-05-21T15:47:52.910Z,19.00
2023-05-21T15:50:19.920Z,18.50
2023-05-21T15:52:46.801Z,17.90
2023-05-21T15:55:14.211Z,16.40
2023-05-21T15:57:41.298Z,17.80
2023-05-21T16:00:09.575Z,16.90
2023-05-21T16:02:36.861Z,17.60
2023-05-21T16:05:04.141Z,18.40
2023-05-21T16:07:31.013Z,18.70
2023-05-21T16:09:58.001Z,18.60
2023-05-21T16:12:25.030Z,18.90
2023-05-21T16:14:51.955Z,18.30
2023-05-21T16:17:21.955Z,18.30
2023-05-21T16:19:48.881Z,18.90
2023-05-21T16:22:16.249Z,18.20
2023-05-21T16:24:43.151Z,18.60
2023-05-21T16:27:10.045Z,18.80
2023-05-21T16:29:39.350Z,19.30
2023-05-21T16:32:07.860Z,19.70
2023-05-21T16:34:35.470Z,19.10
2023-05-21T16:37:02.468Z,19.30
2023-05-21T16:39:29.451Z,19.50
2023-05-21T16:42:00.237Z,19.60
2023-05-21T16:44:27.544Z,19.80
2023-05-21T16:46:54.487Z,20.20
2023-05-21T16:49:21.387Z,20.60
2023-05-21T16:51:48.264Z,20.20
2023-05-21T16:54:15.212Z,20.60
2023-05-21T16:56:42.115Z,20.70
2023-05-21T16:59:09.489Z,21.20
2023-05-21T17:01:36.833Z,21.50
2023-05-21T17:04:06.499Z,21.40
2023-05-21T17:06:33.950Z,22.20
2023-05-21T17:09:01.568Z,22.40
2023-05-21T17:11:28.909Z,21.90
2023-05-21T17:13:55.770Z,22.30
2023-05-21T17:16:23.773Z,21.70
2023-05-21T17:18:51.356Z,22.10
2023-05-21T17:21:19.304Z,22.70
2023-05-21T17:23:46.222Z,23.40
2023-05-21T17:26:14.062Z,23.50
2023-05-21T17:28:41.017Z,23.20
2023-05-21T17:31:09.694Z,23.00
2023-05-21T17:33:37.721Z,23.10
2023-05-21T17:36:04.880Z,23.40
2023-05-21T17:38:31.826Z,23.60
2023-05-21T17:40:59.631Z,24.30
2023-05-21T17:43:31.865Z,24.20
2023-05-21T17:45:58.815Z,24.90
2023-05-21T17:48:27.157Z,25.30
2023-05-21T17:50:54.206Z,25.90
2023-05-21T17:55:49.820Z,25.00
2023-05-21T17:58:16.858Z,25.70
2023-05-21T18:00:43.750Z,25.70
2023-05-21T18:05:38.397Z,25.30
2023-05-21T18:08:07.044Z,26.50
2023-05-21T18:10:34.313Z,26.80
2023-05-21T18:13:01.266Z,26.40
2023-05-21T18:15:28.151Z,26.90
2023-05-21T18:17:55.183Z,27.20
2023-05-21T18:20:22.097Z,27.30
2023-05-21T18:22:49.021Z,26.90
2023-05-21T18:25:15.929Z,27.00
2023-05-21T18:27:42.791Z,26.80
2023-05-21T18:30:10.085Z,27.30
2023-05-21T18:32:39.807Z,27.30
2023-05-21T18:35:08.209Z,27.90
2023-05-21T18:37:35.223Z,28.10
2023-05-21T18:40:02.117Z,27.90
2023-05-21T18:42:28.961Z,28.00
2023-05-21T18:44:56.109Z,28.50
2023-05-21T18:47:23.687Z,28.80
2023-05-21T18:49:50.725Z,29.00
2023-05-21T18:52:17.634Z,28.90
2023-05-21T18:54:45.110Z,29.10
2023-05-21T18:57:13.616Z,29.50
2023-05-21T19:02:09.049Z,29.30
2023-05-21T19:04:35.923Z,30.00
2023-05-21T19:07:03.895Z,30.00
2023-05-21T19:09:30.968Z,29.90
2023-05-21T19:11:58.020Z,30.00
2023-05-21T19:14:24.984Z,30.30
2023-05-21T19:16:51.933Z,30.10
2023-05-21T19:19:18.901Z,29.90
2023-05-21T19:21:45.952Z,30.00
2023-05-21T19:24:12.905Z,29.70
2023-05-21T19:26:39.824Z,29.60
2023-05-21T19:29:06.679Z,30.00
2023-05-21T19:31:34.020Z,30.10
2023-05-21T19:34:01.102Z,30.00
2023-05-21T19:36:32.613Z,29.90
2023-05-21T19:39:05.303Z,30.10
2023-05-21T19:41:32.157Z,30.00
2023-05-21T19:43:59.011Z,30.10
2023-05-21T19:46:26.138Z,30.60
2023-05-21T19:48:53.035Z,30.30
2023-05-21T19:51:20.028Z,30.70
2023-05-21T19:53:46.938Z,30.70
2023-05-21T19:56:13.852Z,30.70
2023-05-21T19:58:40.945Z,31.40
2023-05-21T20:01:08.295Z,31.90
2023-05-21T20:03:37.960Z,31.70
2023-05-21T20:06:04.971Z,31.60
2023-05-21T20:08:32.479Z,31.80
2023-05-21T20:10:59.348Z,31.80
2023-05-21T20:13:26.486Z,31.80
2023-05-21T20:15:53.478Z,32.30
2023-05-21T20:18:21.724Z,32.40
2023-05-21T20:20:49.291Z,32.40
2023-05-21T20:23:16.167Z,32.60
2023-05-21T20:25:43.106Z,32.60
2023-05-21T20:28:10.044Z,32.80
2023-05-21T20:30:52.853Z,33.00
2023-05-21T20:33:20.347Z,33.20
2023-05-21T20:35:47.242Z,33.60
2023-05-21T20:38:16.114Z,33.20
2023-05-21T20:40:44.170Z,33.80
2023-05-21T20:43:15.262Z,33.60
2023-05-21T20:45:43.660Z,33.80
2023-05-21T20:48:12.049Z,33.70
2023-05-21T20:50:40.975Z,34.10
2023-05-21T20:53:08.773Z,34.10
2023-05-21T20:55:38.628Z,34.60
2023-05-21T20:58:05.752Z,34.70
2023-05-21T21:00:33.575Z,34.90
2023-05-21T21:03:01.979Z,35.10
2023-05-21T21:05:28.925Z,35.80
2023-05-21T21:07:56.169Z,35.30
2023-05-21T21:10:23.271Z,35.70
2023-05-21T21:12:50.378Z,36.00
2023-05-21T21:15:17.765Z,36.00
2023-05-21T21:17:44.812Z,36.50
2023-05-21T21:20:13.711Z,36.60
2023-05-21T21:22:41.442Z,36.20
2023-05-21T21:25:08.874Z,35.80
2023-05-21T21:27:35.879Z,36.00
2023-05-21T21:30:04.696Z,36.00
2023-05-21T21:32:31.690Z,36.00
2023-05-21T21:34:58.573Z,36.50
2023-05-21T21:37:25.708Z,36.50
2023-05-21T21:39:52.587Z,35.80
2023-05-21T21:42:19.482Z,36.30
2023-05-21T21:44:46.461Z,35.80
2023-05-21T21:47:13.358Z,36.50
2023-05-21T21:49:40.448Z,36.30
2023-05-21T21:52:08.314Z,35.90
2023-05-21T21:54:35.228Z,35.30
2023-05-21T21:57:02.075Z,35.60
2023-05-21T21:59:29.436Z,35.90
2023-05-21T22:01:56.594Z,36.00
2023-05-21T22:04:23.544Z,36.60
2023-05-21T22:06:50.492Z,36.90
2023-05-21T22:09:17.660Z,37.10
2023-05-21T22:11:44.530Z,37.10
2023-05-21T22:14:11.824Z,36.60
2023-05-21T22:16:38.824Z,37.10
2023-05-21T22:19:05.762Z,36.90
2023-05-21T22:21:34.392Z,37.00
2023-05-21T22:24:01.254Z,37.50
2023-05-21T22:26:28.087Z,37.60
2023-05-21T22:28:55.156Z,37.90
2023-05-21T22:31:22.204Z,38.00
2023-05-21T22:33:49.095Z,38.00
2023-05-21T22:36:16.507Z,38.80
2023-05-21T22:38:43.877Z,38.60
2023-05-21T22:41:11.421Z,39.00
2023-05-21T22:43:38.390Z,39.20
2023-05-21T22:46:05.572Z,37.80
2023-05-21T22:48:34.435Z,37.90
2023-05-21T22:51:02.040Z,38.60
2023-05-21T22:53:29.006Z,36.80
2023-05-21T22:55:55.938Z,36.30
2023-05-21T22:58:22.857Z,37.00
2023-05-21T23:00:49.740Z,37.30
2023-05-21T23:03:16.939Z,37.10
2023-05-21T23:05:44.212Z,38.30
2023-05-21T23:08:11.239Z,38.60
2023-05-21T23:10:38.296Z,39.70
2023-05-21T23:13:05.300Z,40.00
2023-05-21T23:15:32.158Z,41.00
2023-05-21T23:18:00.431Z,41.80
2023-05-21T23:20:27.900Z,41.90
2023-05-21T23:22:54.728Z,41.40
2023-05-21T23:25:21.615Z,41.30
2023-05-21T23:27:48.944Z,41.60
2023-05-21T23:30:16.070Z,41.90
2023-05-21T23:32:42.950Z,42.10
2023-05-21T23:35:10.139Z,42.40
2023-05-21T23:37:37.068Z,42.80
2023-05-21T23:40:04.241Z,43.60
2023-05-21T23:42:31.214Z,42.90
2023-05-21T23:44:58.084Z,42.80
2023-05-21T23:47:25.931Z,43.00
2023-05-21T23:49:53.020Z,43.70
2023-05-21T23:52:19.923Z,44.10
2023-05-21T23:54:46.912Z,44.30
2023-05-21T23:57:14.511Z,44.40
2023-05-21T23:59:41.459Z,45.10
